sensor_id;sensor_type;location;lat;lon;timestamp;pressure;altitude;pressure_sealevel;temperature;humidity
62710;BME280;48770;51.624;5.886;2023-11-21T00:01:38;100913.03;;;19.92;52.09
62710;BME280;48770;51.624;5.886;2023-11-21T00:04:03;100916.59;;;19.92;51.95
62710;BME280;48770;51.624;5.886;2023-11-21T00:06:28;100916.94;;;19.91;51.91
62710;BME280;48770;51.624;5.886;2023-11-21T00:08:55;100925.28;;;19.91;51.96
62710;BME280;48770;51.624;5.886;2023-11-21T00:11:21;100924.47;;;19.90;52.00
62710;BME280;48770;51.624;5.886;2023-11-21T00:13:46;100928.41;;;19.89;51.71
62710;BME280;48770;51.624;5.886;2023-11-21T00:16:11;100932.31;;;19.88;51.83
62710;BME280;48770;51.624;5.886;2023-11-21T00:18:37;100933.47;;;19.87;51.89
62710;BME280;48770;51.624;5.886;2023-11-21T00:21:02;100935.09;;;19.88;51.96
62710;BME280;48770;51.624;5.886;2023-11-21T00:23:28;100928.75;;;19.88;51.84
62710;BME280;48770;51.624;5.886;2023-11-21T00:25:54;100925.50;;;19.86;51.67
62710;BME280;48770;51.624;5.886;2023-11-21T00:28:19;100925.50;;;19.86;51.69
62710;BME280;48770;51.624;5.886;2023-11-21T00:30:44;100930.25;;;19.85;51.85
62710;BME280;48770;51.624;5.886;2023-11-21T00:33:10;100930.25;;;19.85;51.86
62710;BME280;48770;51.624;5.886;2023-11-21T00:35:36;100930.25;;;19.85;51.79
62710;BME280;48770;51.624;5.886;2023-11-21T00:38:01;100931.41;;;19.84;51.88
62710;BME280;48770;51.624;5.886;2023-11-21T00:40:28;100927.81;;;19.84;51.61
62710;BME280;48770;51.624;5.886;2023-11-21T00:42:53;100931.75;;;19.83;51.71
62710;BME280;48770;51.624;5.886;2023-11-21T00:45:19;100936.47;;;19.82;51.66
62710;BME280;48770;51.624;5.886;2023-11-21T00:47:44;100939.59;;;19.81;51.60
62710;BME280;48770;51.624;5.886;2023-11-21T00:50:09;100934.84;;;19.81;51.73
62710;BME280;48770;51.624;5.886;2023-11-21T00:52:35;100929.31;;;19.81;51.81
62710;BME280;48770;51.624;5.886;2023-11-21T00:55:01;100931.63;;;19.79;51.69
62710;BME280;48770;51.624;5.886;2023-11-21T00:57:28;100928.50;;;19.81;51.68
62710;BME280;48770;51.624;5.886;2023-11-21T00:59:53;100934.41;;;19.79;51.62
62710;BME280;48770;51.624;5.886;2023-11-21T01:02:19;100944.34;;;19.80;51.78
62710;BME280;48770;51.624;5.886;2023-11-21T01:04:45;100949.06;;;19.80;51.63
62710;BME280;48770;51.624;5.886;2023-11-21T01:07:10;100949.72;;;19.77;51.88
62710;BME280;48770;51.624;5.886;2023-11-21T01:09:35;100953.31;;;19.77;51.79
62710;BME280;48770;51.624;5.886;2023-11-21T01:12:01;100960.84;;;19.77;51.70
62710;BME280;48770;51.624;5.886;2023-11-21T01:14:26;100964.75;;;19.76;51.76
62710;BME280;48770;51.624;5.886;2023-11-21T01:16:52;100965.56;;;19.76;51.97
62710;BME280;48770;51.624;5.886;2023-11-21T01:19:18;100970.31;;;19.76;51.74
62710;BME280;48770;51.624;5.886;2023-11-21T01:21:43;100973.44;;;19.74;51.80
62710;BME280;48770;51.624;5.886;2023-11-21T01:24:08;100973.44;;;19.74;51.80
62710;BME280;48770;51.624;5.886;2023-11-21T01:26:34;100983.72;;;19.74;51.64
62710;BME280;48770;51.624;5.886;2023-11-21T01:28:59;100982.91;;;19.73;51.61
62710;BME280;48770;51.624;5.886;2023-11-21T01:31:24;100986.03;;;19.71;52.23
62710;BME280;48770;51.624;5.886;2023-11-21T01:33:54;100989.59;;;19.72;51.81
62710;BME280;48770;51.624;5.886;2023-11-21T01:36:20;100990.41;;;19.73;51.68
62710;BME280;48770;51.624;5.886;2023-11-21T01:38:46;100993.19;;;19.73;51.83
62710;BME280;48770;51.624;5.886;2023-11-21T01:41:13;100987.97;;;19.71;51.82
62710;BME280;48770;51.624;5.886;2023-11-21T01:43:39;100997.13;;;19.71;51.79
62710;BME280;48770;51.624;5.886;2023-11-21T01:46:05;100996.31;;;19.71;51.70
62710;BME280;48770;51.624;5.886;2023-11-21T01:48:31;101004.63;;;19.71;51.70
62710;BME280;48770;51.624;5.886;2023-11-21T01:50:58;100997.13;;;19.71;51.87
62710;BME280;48770;51.624;5.886;2023-11-21T01:53:25;101000.22;;;19.70;52.02
62710;BME280;48770;51.624;5.886;2023-11-21T01:55:51;100999.41;;;19.69;51.80
62710;BME280;48770;51.624;5.886;2023-11-21T01:58:17;101001.38;;;19.69;52.06
62710;BME280;48770;51.624;5.886;2023-11-21T02:00:42;101004.16;;;19.69;52.02
62710;BME280;48770;51.624;5.886;2023-11-21T02:03:08;101003.34;;;19.68;52.00
62710;BME280;48770;51.624;5.886;2023-11-21T02:05:35;101002.53;;;19.68;51.80
62710;BME280;48770;51.624;5.886;2023-11-21T02:08:01;100998.16;;;19.67;52.00
62710;BME280;48770;51.624;5.886;2023-11-21T02:10:27;100988.66;;;19.68;51.90
62710;BME280;48770;51.624;5.886;2023-11-21T02:12:54;100999.28;;;19.66;51.97
62710;BME280;48770;51.624;5.886;2023-11-21T02:15:21;101002.53;;;19.68;52.06
62710;BME280;48770;51.624;5.886;2023-11-21T02:17:49;101004.50;;;19.67;51.83
62710;BME280;48770;51.624;5.886;2023-11-21T02:20:17;101007.63;;;19.66;52.00
62710;BME280;48770;51.624;5.886;2023-11-21T02:22:52;101015.13;;;19.65;51.88
62710;BME280;48770;51.624;5.886;2023-11-21T02:25:23;101013.03;;;19.62;51.89
62710;BME280;48770;51.624;5.886;2023-11-21T02:27:48;101015.47;;;19.64;52.12
62710;BME280;48770;51.624;5.886;2023-11-21T02:30:15;101028.53;;;19.63;52.11
62710;BME280;48770;51.624;5.886;2023-11-21T02:32:41;101019.41;;;19.63;52.15
62710;BME280;48770;51.624;5.886;2023-11-21T02:35:08;101024.13;;;19.62;52.16
62710;BME280;48770;51.624;5.886;2023-11-21T02:37:34;101021.69;;;19.61;51.84
62710;BME280;48770;51.624;5.886;2023-11-21T02:40:00;101026.09;;;19.62;52.00
62710;BME280;48770;51.624;5.886;2023-11-21T02:42:28;101026.09;;;19.62;52.02
62710;BME280;48770;51.624;5.886;2023-11-21T02:44:54;101030.03;;;19.61;51.93
62710;BME280;48770;51.624;5.886;2023-11-21T02:47:19;101035.56;;;19.61;51.98
62710;BME280;48770;51.624;5.886;2023-11-21T02:49:45;101028.41;;;19.60;52.19
62710;BME280;48770;51.624;5.886;2023-11-21T02:52:10;101021.22;;;19.59;51.95
62710;BME280;48770;51.624;5.886;2023-11-21T02:54:35;101024.00;;;19.59;52.09
62710;BME280;48770;51.624;5.886;2023-11-21T02:57:02;101025.97;;;19.58;52.20
62710;BME280;48770;51.624;5.886;2023-11-21T02:59:27;101028.75;;;19.58;52.09
62710;BME280;48770;51.624;5.886;2023-11-21T03:01:53;101031.50;;;19.58;52.09
62710;BME280;48770;51.624;5.886;2023-11-21T03:04:18;101039.03;;;19.58;52.12
62710;BME280;48770;51.624;5.886;2023-11-21T03:06:44;101036.25;;;19.58;52.07
62710;BME280;48770;51.624;5.886;2023-11-21T03:09:11;101035.09;;;19.59;52.41
62710;BME280;48770;51.624;5.886;2023-11-21T03:11:39;101034.63;;;19.57;52.19
62710;BME280;48770;51.624;5.886;2023-11-21T03:14:04;101036.59;;;19.56;51.98
62710;BME280;48770;51.624;5.886;2023-11-21T03:16:31;101035.78;;;19.56;52.03
62710;BME280;48770;51.624;5.886;2023-11-21T03:18:56;101042.13;;;19.56;52.10
62710;BME280;48770;51.624;5.886;2023-11-21T03:21:22;101043.28;;;19.55;52.15
62710;BME280;48770;51.624;5.886;2023-11-21T03:23:47;101038.91;;;19.54;52.15
62710;BME280;48770;51.624;5.886;2023-11-21T03:26:12;101048.03;;;19.55;52.25
62710;BME280;48770;51.624;5.886;2023-11-21T03:28:38;101046.41;;;19.54;52.14
62710;BME280;48770;51.624;5.886;2023-11-21T03:31:03;101053.56;;;19.55;52.08
62710;BME280;48770;51.624;5.886;2023-11-21T03:33:29;101050.31;;;19.53;52.10
62710;BME280;48770;51.624;5.886;2023-11-21T03:35:54;101055.84;;;19.53;52.26
62710;BME280;48770;51.624;5.886;2023-11-21T03:38:19;101048.69;;;19.52;52.23
62710;BME280;48770;51.624;5.886;2023-11-21T03:40:45;101058.63;;;19.53;52.25
62710;BME280;48770;51.624;5.886;2023-11-21T03:43:10;101052.25;;;19.52;52.07
62710;BME280;48770;51.624;5.886;2023-11-21T03:45:36;101057.81;;;19.52;52.16
62710;BME280;48770;51.624;5.886;2023-11-21T03:48:01;101058.13;;;19.51;52.29
62710;BME280;48770;51.624;5.886;2023-11-21T03:50:29;101054.22;;;19.52;52.29
62710;BME280;48770;51.624;5.886;2023-11-21T03:52:54;101058.13;;;19.51;52.16
62710;BME280;48770;51.624;5.886;2023-11-21T03:55:19;101052.56;;;19.51;51.95
62710;BME280;48770;51.624;5.886;2023-11-21T03:57:45;101055.69;;;19.49;52.13
62710;BME280;48770;51.624;5.886;2023-11-21T04:00:10;101057.31;;;19.50;52.35
62710;BME280;48770;51.624;5.886;2023-11-21T04:02:36;101064.81;;;19.50;52.29
62710;BME280;48770;51.624;5.886;2023-11-21T04:05:01;101062.38;;;19.48;52.22
62710;BME280;48770;51.624;5.886;2023-11-21T04:07:26;101059.59;;;19.48;52.33
62710;BME280;48770;51.624;5.886;2023-11-21T04:09:52;101065.16;;;19.48;52.06
62710;BME280;48770;51.624;5.886;2023-11-21T04:12:18;101067.94;;;19.48;52.01
62710;BME280;48770;51.624;5.886;2023-11-21T04:14:44;101069.06;;;19.47;52.26
62710;BME280;48770;51.624;5.886;2023-11-21T04:17:09;101078.22;;;19.48;52.00
62710;BME280;48770;51.624;5.886;2023-11-21T04:19:34;101079.34;;;19.47;52.18
62710;BME280;48770;51.624;5.886;2023-11-21T04:22:00;101081.31;;;19.46;52.18
62710;BME280;48770;51.624;5.886;2023-11-21T04:24:25;101082.94;;;19.47;52.31
62710;BME280;48770;51.624;5.886;2023-11-21T04:26:50;101089.63;;;19.46;52.48
62710;BME280;48770;51.624;5.886;2023-11-21T04:29:16;101097.16;;;19.46;52.14
62710;BME280;48770;51.624;5.886;2023-11-21T04:31:41;101104.66;;;19.45;52.15
62710;BME280;48770;51.624;5.886;2023-11-21T04:34:07;101110.19;;;19.45;52.21
62710;BME280;48770;51.624;5.886;2023-11-21T04:36:33;101109.88;;;19.47;52.14
62710;BME280;48770;51.624;5.886;2023-11-21T04:39:00;101103.50;;;19.46;52.04
62710;BME280;48770;51.624;5.886;2023-11-21T04:41:25;101118.84;;;19.44;52.03
62710;BME280;48770;51.624;5.886;2023-11-21T04:43:50;101120.47;;;19.45;52.26
62710;BME280;48770;51.624;5.886;2023-11-21T04:46:15;101121.28;;;19.45;52.15
62710;BME280;48770;51.624;5.886;2023-11-21T04:48:41;101123.59;;;19.43;52.06
62710;BME280;48770;51.624;5.886;2023-11-21T04:51:06;101125.56;;;19.42;52.29
62710;BME280;48770;51.624;5.886;2023-11-21T04:53:32;101128.00;;;19.44;52.32
62710;BME280;48770;51.624;5.886;2023-11-21T04:55:57;101129.47;;;19.41;52.23
62710;BME280;48770;51.624;5.886;2023-11-21T04:58:23;101139.41;;;19.42;52.15
62710;BME280;48770;51.624;5.886;2023-11-21T05:00:48;101138.59;;;19.42;52.25
62710;BME280;48770;51.624;5.886;2023-11-21T05:03:14;101139.41;;;19.42;52.07
62710;BME280;48770;51.624;5.886;2023-11-21T05:05:40;101142.19;;;19.42;52.09
62710;BME280;48770;51.624;5.886;2023-11-21T05:08:05;101148.06;;;19.41;52.03
62710;BME280;48770;51.624;5.886;2023-11-21T05:10:30;101143.69;;;19.40;52.22
62710;BME280;48770;51.624;5.886;2023-11-21T05:12:56;101144.50;;;19.40;52.23
62710;BME280;48770;51.624;5.886;2023-11-21T05:15:21;101151.19;;;19.39;52.12
62710;BME280;48770;51.624;5.886;2023-11-21T05:17:47;101152.81;;;19.40;52.10
62710;BME280;48770;51.624;5.886;2023-11-21T05:20:15;101158.34;;;19.40;52.02
62710;BME280;48770;51.624;5.886;2023-11-21T05:22:45;101154.78;;;19.40;52.14
62710;BME280;48770;51.624;5.886;2023-11-21T05:25:11;101159.50;;;19.39;52.09
62710;BME280;48770;51.624;5.886;2023-11-21T05:27:37;101163.09;;;19.40;52.11
62710;BME280;48770;51.624;5.886;2023-11-21T05:30:03;101162.28;;;19.39;52.24
62710;BME280;48770;51.624;5.886;2023-11-21T05:32:32;101168.16;;;19.38;52.06
62710;BME280;48770;51.624;5.886;2023-11-21T05:34:58;101159.84;;;19.38;52.04
62710;BME280;48770;51.624;5.886;2023-11-21T05:37:23;101166.19;;;19.38;52.15
62710;BME280;48770;51.624;5.886;2023-11-21T05:39:49;101170.94;;;19.38;52.19
62710;BME280;48770;51.624;5.886;2023-11-21T05:42:14;101174.03;;;19.36;52.31
62710;BME280;48770;51.624;5.886;2023-11-21T05:44:43;101174.03;;;19.36;52.19
62710;BME280;48770;51.624;5.886;2023-11-21T05:47:08;101176.81;;;19.36;52.01
62710;BME280;48770;51.624;5.886;2023-11-21T05:49:34;101174.03;;;19.36;52.01
62710;BME280;48770;51.624;5.886;2023-11-21T05:51:59;101180.41;;;19.37;52.18
62710;BME280;48770;51.624;5.886;2023-11-21T05:54:25;101176.81;;;19.36;52.08
62710;BME280;48770;51.624;5.886;2023-11-21T05:56:51;101179.59;;;19.36;52.13
62710;BME280;48770;51.624;5.886;2023-11-21T05:59:16;101180.41;;;19.37;52.00
62710;BME280;48770;51.624;5.886;2023-11-21T06:01:41;101183.50;;;19.35;52.06
62710;BME280;48770;51.624;5.886;2023-11-21T06:04:07;101192.97;;;19.34;51.95
62710;BME280;48770;51.624;5.886;2023-11-21T06:06:36;101192.97;;;19.34;52.20
62710;BME280;48770;51.624;5.886;2023-11-21T06:09:01;101203.25;;;19.34;52.11
62710;BME280;48770;51.624;5.886;2023-11-21T06:11:27;101203.25;;;19.34;52.06
62710;BME280;48770;51.624;5.886;2023-11-21T06:13:52;101207.50;;;19.31;52.07
62710;BME280;48770;51.624;5.886;2023-11-21T06:16:18;101214.34;;;19.34;52.12
62710;BME280;48770;51.624;5.886;2023-11-21T06:18:45;101214.34;;;19.34;52.26
62710;BME280;48770;51.624;5.886;2023-11-21T06:21:11;101219.88;;;19.34;52.22
62710;BME280;48770;51.624;5.886;2023-11-21T06:23:36;101207.16;;;19.33;52.16
62710;BME280;48770;51.624;5.886;2023-11-21T06:26:02;101215.81;;;19.31;52.17
62710;BME280;48770;51.624;5.886;2023-11-21T06:28:27;101221.38;;;19.31;51.80
62710;BME280;48770;51.624;5.886;2023-11-21T06:30:52;101223.31;;;19.31;52.07
62710;BME280;48770;51.624;5.886;2023-11-21T06:33:18;101232.47;;;19.31;52.15
62710;BME280;48770;51.624;5.886;2023-11-21T06:35:43;101229.69;;;19.31;52.16
62710;BME280;48770;51.624;5.886;2023-11-21T06:38:09;101228.06;;;19.30;52.18
62710;BME280;48770;51.624;5.886;2023-11-21T06:40:35;101237.19;;;19.31;51.60
62710;BME280;48770;51.624;5.886;2023-11-21T06:43:00;101241.09;;;19.30;52.08
62710;BME280;48770;51.624;5.886;2023-11-21T06:45:26;101236.38;;;19.30;52.18
62710;BME280;48770;51.624;5.886;2023-11-21T06:47:51;101243.06;;;19.29;52.15
62710;BME280;48770;51.624;5.886;2023-11-21T06:50:17;101245.03;;;19.29;52.16
62710;BME280;48770;51.624;5.886;2023-11-21T06:52:42;101241.91;;;19.30;52.03
62710;BME280;48770;51.624;5.886;2023-11-21T06:55:08;101245.84;;;19.29;51.96
62710;BME280;48770;51.624;5.886;2023-11-21T06:57:34;101250.56;;;19.29;52.23
62710;BME280;48770;51.624;5.886;2023-11-21T06:59:59;101253.34;;;19.29;52.04
62710;BME280;48770;51.624;5.886;2023-11-21T07:02:25;101258.06;;;19.28;52.00
62710;BME280;48770;51.624;5.886;2023-11-21T07:04:50;101265.59;;;19.28;52.25
62710;BME280;48770;51.624;5.886;2023-11-21T07:07:15;101264.78;;;19.27;52.06
62710;BME280;48770;51.624;5.886;2023-11-21T07:09:41;101263.97;;;19.27;52.13
62710;BME280;48770;51.624;5.886;2023-11-21T07:12:06;101258.41;;;19.27;52.18
62710;BME280;48770;51.624;5.886;2023-11-21T07:14:36;101263.16;;;19.26;52.13
62710;BME280;48770;51.624;5.886;2023-11-21T07:17:02;101273.91;;;19.28;52.11
62710;BME280;48770;51.624;5.886;2023-11-21T07:19:27;101275.03;;;19.27;52.12
62710;BME280;48770;51.624;5.886;2023-11-21T07:21:52;101285.31;;;19.26;52.00
62710;BME280;48770;51.624;5.886;2023-11-21T07:24:18;101293.63;;;19.26;51.86
62710;BME280;48770;51.624;5.886;2023-11-21T07:26:43;101304.72;;;19.26;52.07
62710;BME280;48770;51.624;5.886;2023-11-21T07:29:09;101305.84;;;19.25;51.95
62710;BME280;48770;51.624;5.886;2023-11-21T07:31:34;101314.16;;;19.25;52.21
62710;BME280;48770;51.624;5.886;2023-11-21T07:34:00;101328.88;;;19.26;52.00
62710;BME280;48770;51.624;5.886;2023-11-21T07:36:26;101328.53;;;19.27;52.10
62710;BME280;48770;51.624;5.886;2023-11-21T07:38:51;101327.22;;;19.25;52.05
62710;BME280;48770;51.624;5.886;2023-11-21T07:41:17;101336.34;;;19.25;52.12
62710;BME280;48770;51.624;5.886;2023-11-21T07:43:46;101335.53;;;19.25;52.17
62710;BME280;48770;51.624;5.886;2023-11-21T07:46:11;101332.75;;;19.25;52.12
62710;BME280;48770;51.624;5.886;2023-11-21T07:48:41;101339.13;;;19.25;52.11
62710;BME280;48770;51.624;5.886;2023-11-21T07:51:11;101341.06;;;19.25;51.91
62710;BME280;48770;51.624;5.886;2023-11-21T07:53:38;101337.47;;;19.24;52.05
62710;BME280;48770;51.624;5.886;2023-11-21T07:56:05;101339.13;;;19.25;52.02
62710;BME280;48770;51.624;5.886;2023-11-21T07:58:33;101346.63;;;19.25;51.94
62710;BME280;48770;51.624;5.886;2023-11-21T08:00:59;101351.03;;;19.26;52.07
62710;BME280;48770;51.624;5.886;2023-11-21T08:03:24;101351.34;;;19.24;51.92
62710;BME280;48770;51.624;5.886;2023-11-21T08:05:51;101353.31;;;19.24;52.16
62710;BME280;48770;51.624;5.886;2023-11-21T08:08:16;101354.44;;;19.23;52.07
62710;BME280;48770;51.624;5.886;2023-11-21T08:10:43;101355.25;;;19.23;52.06
62710;BME280;48770;51.624;5.886;2023-11-21T08:13:11;101354.44;;;19.23;51.89
62710;BME280;48770;51.624;5.886;2023-11-21T08:15:39;101358.38;;;19.22;52.30
62710;BME280;48770;51.624;5.886;2023-11-21T08:18:05;101361.13;;;19.22;52.00
62710;BME280;48770;51.624;5.886;2023-11-21T08:20:32;101375.81;;;19.22;52.02
62710;BME280;48770;51.624;5.886;2023-11-21T08:22:58;101371.41;;;19.21;51.93
62710;BME280;48770;51.624;5.886;2023-11-21T08:25:23;101371.41;;;19.21;52.29
62710;BME280;48770;51.624;5.886;2023-11-21T08:27:49;101382.50;;;19.21;51.93
62710;BME280;48770;51.624;5.886;2023-11-21T08:30:14;101372.56;;;19.20;52.22
62710;BME280;48770;51.624;5.886;2023-11-21T08:32:41;101377.28;;;19.20;52.09
62710;BME280;48770;51.624;5.886;2023-11-21T08:35:07;101380.88;;;19.20;52.07
62710;BME280;48770;51.624;5.886;2023-11-21T08:37:33;101380.06;;;19.20;52.08
62710;BME280;48770;51.624;5.886;2023-11-21T08:40:03;101381.69;;;19.21;51.97
62710;BME280;48770;51.624;5.886;2023-11-21T08:42:28;101384.47;;;19.21;52.05
62710;BME280;48770;51.624;5.886;2023-11-21T08:44:55;101395.56;;;19.21;51.93
62710;BME280;48770;51.624;5.886;2023-11-21T08:47:22;101396.69;;;19.20;52.22
62710;BME280;48770;51.624;5.886;2023-11-21T08:49:50;101403.06;;;19.20;52.09
62710;BME280;48770;51.624;5.886;2023-11-21T08:52:17;101409.75;;;19.19;52.15
62710;BME280;48770;51.624;5.886;2023-11-21T08:54:42;101414.47;;;19.19;52.13
62710;BME280;48770;51.624;5.886;2023-11-21T08:57:08;101421.66;;;19.20;52.05
62710;BME280;48770;51.624;5.886;2023-11-21T08:59:34;101420.84;;;19.19;52.22
62710;BME280;48770;51.624;5.886;2023-11-21T09:01:59;101420.84;;;19.19;51.97
62710;BME280;48770;51.624;5.886;2023-11-21T09:04:24;101427.50;;;19.18;52.00
62710;BME280;48770;51.624;5.886;2023-11-21T09:06:50;101428.34;;;19.19;52.16
62710;BME280;48770;51.624;5.886;2023-11-21T09:09:15;101437.47;;;19.19;52.03
62710;BME280;48770;51.624;5.886;2023-11-21T09:11:41;101427.50;;;19.18;52.03
62710;BME280;48770;51.624;5.886;2023-11-21T09:14:06;101438.59;;;19.18;52.06
62710;BME280;48770;51.624;5.886;2023-11-21T09:16:31;101431.44;;;19.17;52.03
62710;BME280;48770;51.624;5.886;2023-11-21T09:18:58;101435.84;;;19.18;52.15
62710;BME280;48770;51.624;5.886;2023-11-21T09:21:24;101433.88;;;19.19;52.08
62710;BME280;48770;51.624;5.886;2023-11-21T09:23:50;101441.38;;;19.18;52.08
62710;BME280;48770;51.624;5.886;2023-11-21T09:26:16;101445.28;;;19.17;52.28
62710;BME280;48770;51.624;5.886;2023-11-21T09:28:43;101444.16;;;19.18;51.95
62710;BME280;48770;51.624;5.886;2023-11-21T09:31:12;101450.50;;;19.19;52.17
62710;BME280;48770;51.624;5.886;2023-11-21T09:33:38;101442.53;;;19.17;52.12
62710;BME280;48770;51.624;5.886;2023-11-21T09:36:04;101452.47;;;19.18;51.92
62710;BME280;48770;51.624;5.886;2023-11-21T09:38:30;101453.28;;;19.19;52.08
62710;BME280;48770;51.624;5.886;2023-11-21T09:40:56;101461.59;;;19.19;52.11
62710;BME280;48770;51.624;5.886;2023-11-21T09:43:24;101456.88;;;19.19;52.00
62710;BME280;48770;51.624;5.886;2023-11-21T09:45:58;101456.38;;;19.17;52.20
62710;BME280;48770;51.624;5.886;2023-11-21T09:48:25;101467.13;;;19.19;51.88
62710;BME280;48770;51.624;5.886;2023-11-21T09:50:51;101473.50;;;19.19;52.08
62710;BME280;48770;51.624;5.886;2023-11-21T09:53:20;101475.47;;;19.19;52.17
62710;BME280;48770;51.624;5.886;2023-11-21T09:55:53;101477.41;;;19.18;52.16
62710;BME280;48770;51.624;5.886;2023-11-21T09:58:20;101475.47;;;19.19;52.18
62710;BME280;48770;51.624;5.886;2023-11-21T10:00:49;101477.41;;;19.18;52.10
62710;BME280;48770;51.624;5.886;2023-11-21T10:03:15;101482.97;;;19.18;52.12
62710;BME280;48770;51.624;5.886;2023-11-21T10:05:45;101490.47;;;19.18;52.30
62710;BME280;48770;51.624;5.886;2023-11-21T10:08:12;101496.00;;;19.18;52.10
62710;BME280;48770;51.624;5.886;2023-11-21T10:10:43;101494.88;;;19.19;52.32
62710;BME280;48770;51.624;5.886;2023-11-21T10:13:11;101502.38;;;19.18;52.15
62710;BME280;48770;51.624;5.886;2023-11-21T10:15:37;101497.97;;;19.17;52.06
62710;BME280;48770;51.624;5.886;2023-11-21T10:18:04;101505.94;;;19.19;52.12
62710;BME280;48770;51.624;5.886;2023-11-21T10:20:31;101504.00;;;19.19;52.12
62710;BME280;48770;51.624;5.886;2023-11-21T10:22:57;101516.56;;;19.17;52.14
62710;BME280;48770;51.624;5.886;2023-11-21T10:25:22;101524.88;;;19.17;52.11
62710;BME280;48770;51.624;5.886;2023-11-21T10:27:48;101522.91;;;19.17;52.12
62710;BME280;48770;51.624;5.886;2023-11-21T10:30:17;101526.81;;;19.16;52.24
62710;BME280;48770;51.624;5.886;2023-11-21T10:32:43;101533.19;;;19.17;52.26
62710;BME280;48770;51.624;5.886;2023-11-21T10:35:09;101527.63;;;19.17;51.99
62710;BME280;48770;51.624;5.886;2023-11-21T10:37:38;101526.81;;;19.16;52.22
62710;BME280;48770;51.624;5.886;2023-11-21T10:40:09;101526.81;;;19.16;52.05
62710;BME280;48770;51.624;5.886;2023-11-21T10:42:38;101535.97;;;19.17;52.15
62710;BME280;48770;51.624;5.886;2023-11-21T10:45:05;101545.09;;;19.17;52.17
62710;BME280;48770;51.624;5.886;2023-11-21T10:47:38;101533.50;;;19.15;52.24
62710;BME280;48770;51.624;5.886;2023-11-21T10:50:04;101535.16;;;19.16;52.08
62710;BME280;48770;51.624;5.886;2023-11-21T10:52:29;101534.31;;;19.16;52.28
62710;BME280;48770;51.624;5.886;2023-11-21T10:54:54;101531.88;;;19.14;52.15
62710;BME280;48770;51.624;5.886;2023-11-21T10:57:21;101539.06;;;19.15;52.31
62710;BME280;48770;51.624;5.886;2023-11-21T10:59:48;101539.88;;;19.16;52.25
62710;BME280;48770;51.624;5.886;2023-11-21T11:02:23;101538.56;;;19.13;52.07
62710;BME280;48770;51.624;5.886;2023-11-21T11:04:57;101529.44;;;19.13;52.31
62710;BME280;48770;51.624;5.886;2023-11-21T11:07:26;101529.44;;;19.13;52.21
62710;BME280;48770;51.624;5.886;2023-11-21T11:09:55;101531.38;;;19.12;52.26
62710;BME280;48770;51.624;5.886;2023-11-21T11:12:21;101528.63;;;19.12;52.37
62710;BME280;48770;51.624;5.886;2023-11-21T11:14:48;101522.75;;;19.14;52.33
62710;BME280;48770;51.624;5.886;2023-11-21T11:17:13;101533.03;;;19.13;52.34
62710;BME280;48770;51.624;5.886;2023-11-21T11:19:39;101532.22;;;19.13;52.35
62710;BME280;48770;51.624;5.886;2023-11-21T11:22:37;101541.66;;;19.03;52.47
62710;BME280;48770;51.624;5.886;2023-11-21T11:28:08;101560.56;;;19.01;52.46
62710;BME280;48770;51.624;5.886;2023-11-21T11:33:11;101569.53;;;19.06;52.42
62710;BME280;48770;51.624;5.886;2023-11-21T11:35:49;101572.00;;;19.08;52.19
62710;BME280;48770;51.624;5.886;2023-11-21T11:38:17;101567.25;;;19.08;52.29
62710;BME280;48770;51.624;5.886;2023-11-21T11:40:47;101562.84;;;19.07;52.36
62710;BME280;48770;51.624;5.886;2023-11-21T11:43:13;101562.84;;;19.07;52.36
62710;BME280;48770;51.624;5.886;2023-11-21T11:45:38;101567.59;;;19.07;52.37
62710;BME280;48770;51.624;5.886;2023-11-21T11:48:08;101568.06;;;19.09;52.37
62710;BME280;48770;51.624;5.886;2023-11-21T11:50:33;101573.63;;;19.09;52.43
62710;BME280;48770;51.624;5.886;2023-11-21T11:53:15;101585.50;;;19.01;52.49
62710;BME280;48770;51.624;5.886;2023-11-21T11:55:41;101592.53;;;19.07;52.36
62710;BME280;48770;51.624;5.886;2023-11-21T11:58:07;101592.53;;;19.07;52.44
62710;BME280;48770;51.624;5.886;2023-11-21T12:00:34;101598.88;;;19.07;52.39
62710;BME280;48770;51.624;5.886;2023-11-21T12:03:03;101603.13;;;19.05;52.45
62710;BME280;48770;51.624;5.886;2023-11-21T12:05:30;101611.44;;;19.05;52.50
62710;BME280;48770;51.624;5.886;2023-11-21T12:08:05;101609.34;;;19.19;52.33
62710;BME280;48770;51.624;5.886;2023-11-21T12:10:34;101608.25;;;19.37;51.89
62710;BME280;48770;51.624;5.886;2023-11-21T12:13:06;101615.44;;;19.38;51.85
62710;BME280;48770;51.624;5.886;2023-11-21T12:15:36;101617.88;;;19.40;52.26
62710;BME280;48770;51.624;5.886;2023-11-21T12:18:02;101622.19;;;19.55;52.02
62710;BME280;48770;51.624;5.886;2023-11-21T12:20:28;101623.81;;;19.64;51.92
62710;BME280;48770;51.624;5.886;2023-11-21T12:22:56;101634.91;;;19.64;52.13
62710;BME280;48770;51.624;5.886;2023-11-21T12:25:26;101630.03;;;19.61;52.23
62710;BME280;48770;51.624;5.886;2023-11-21T12:27:57;101624.78;;;19.60;52.21
62710;BME280;48770;51.624;5.886;2023-11-21T12:30:25;101630.03;;;19.79;51.85
62710;BME280;48770;51.624;5.886;2023-11-21T12:32:54;101632.97;;;19.82;51.88
62710;BME280;48770;51.624;5.886;2023-11-21T12:35:22;101630.03;;;19.79;51.90
62710;BME280;48770;51.624;5.886;2023-11-21T12:37:49;101634.25;;;19.76;52.06
62710;BME280;48770;51.624;5.886;2023-11-21T12:40:15;101637.72;;;19.82;51.95
62710;BME280;48770;51.624;5.886;2023-11-21T12:42:43;101635.91;;;19.94;51.95
62710;BME280;48770;51.624;5.886;2023-11-21T12:45:29;101639.84;;;19.85;51.90
62710;BME280;48770;51.624;5.886;2023-11-21T12:48:01;101645.53;;;19.88;52.08
62710;BME280;48770;51.624;5.886;2023-11-21T12:50:30;101651.75;;;19.85;52.26
62710;BME280;48770;51.624;5.886;2023-11-21T12:53:01;101650.09;;;20.01;51.94